Latest Weather Observations for Dum In Mirrie

IDD60801

Issued at 10:01 pm CST Friday 22 May 2015 (issued every 30 minutes, with the page automatically refreshed every 10 minutes)

About weather observations | Map of weather stations | Latest weather observations for NT | Other Formats
Station Details ID: 014277 Name: DUM IN MIRRIE AIRSTRIP Lat: -12.63 Lon: 130.37 Height: 3.5 m
Data from the previous 72 hours. | See also: Recent months at Dum In Mirrie
Date/Time
CST
Temp
°C
App
Temp
°C
Dew
Point
Rel
Hum
%
Delta-T
°C
Wind Press
QNH
hPa
Press
MSL
hPa
Rain
since 9 am
mm
Dir
 
Spd
km/h
Gust
km/h
Spd
kts
Gust
kts
22/10:00pm 26.0 30.8 22.9 83 2.1 S 2 2 1 1 1015.4 1015.4 0.0
22/09:30pm 26.2 30.8 23.1 83 2.1 SSW 4 7 2 4 1015.3 1015.3 0.0
22/09:00pm 25.4 30.3 22.3 83 2.1 CALM 0 0 0 0 1015.0 1015.0 0.0
22/08:30pm 26.6 31.7 23.3 82 2.2 W 2 4 1 2 1014.7 1014.7 0.0
22/08:00pm 26.7 31.7 23.8 84 2.0 W 4 6 2 3 1014.4 1014.4 0.0
22/07:30pm 26.6 31.1 22.9 80 2.5 NW 4 6 2 3 1014.2 1014.2 0.0
22/07:00pm 26.9 31.5 23.2 80 2.5 WNW 4 7 2 4 1013.8 1013.8 0.0
22/06:30pm 27.3 32.4 23.3 79 2.7 WNW 2 6 1 3 1013.5 1013.5 0.0
22/06:00pm 28.2 32.9 24.0 78 2.9 W 6 9 3 5 1013.3 1013.3 0.0
22/05:30pm 28.7 33.2 24.0 76 3.3 W 7 11 4 6 1013.0 1013.0 0.0
22/05:00pm 29.3 33.9 24.2 74 3.5 W 7 15 4 8 1012.9 1012.9 0.0
22/04:30pm 29.2 33.9 24.3 75 3.4 W 7 15 4 8 1012.7 1012.7 0.0
22/04:00pm 29.9 34.9 24.8 74 3.6 W 7 15 4 8 1012.8 1012.8 0.0
22/03:30pm 30.2 34.3 24.6 72 3.9 W 11 19 6 10 1013.1 1013.1 0.0
22/03:00pm 30.9 34.7 24.1 67 4.7 W 11 19 6 10 1013.1 1013.1 0.0
22/02:30pm 30.7 34.6 23.6 66 4.9 W 9 15 5 8 1013.5 1013.5 0.0
22/02:00pm 32.9 34.6 20.1 47 8.5 E 11 19 6 10 1013.3 1013.3 0.0
22/01:30pm 32.1 33.9 20.4 50 7.8 E 11 19 6 10 1013.7 1013.7 0.0
22/01:00pm 31.5 33.3 21.1 54 7.0 E 13 22 7 12 1014.1 1014.1 0.0
22/12:30pm 31.6 34.1 21.7 55 6.7 E 11 19 6 10 1014.6 1014.6 0.0
22/12:00pm 31.0 34.2 22.3 60 5.9 ENE 9 22 5 12 1015.0 1015.0 0.0
22/11:30am 30.1 33.0 22.5 63 5.2 E 11 19 6 10 1015.3 1015.3 0.0
22/11:00am 29.6 32.7 22.8 67 4.6 E 11 17 6 9 1015.5 1015.5 0.0
22/10:30am 29.2 32.7 22.9 69 4.3 E 9 13 5 7 1015.9 1015.9 0.0
22/10:00am 29.1 32.2 22.8 69 4.3 E 11 17 6 9 1015.8 1015.8 0.0
22/09:30am 28.8 33.1 23.7 74 3.5 ENE 7 11 4 6 1015.7 1015.7 0.0
22/09:00am 27.9 32.7 24.5 82 2.4 ENE 7 9 4 5 1015.6 1015.6 0.0
22/08:30am 26.9 32.0 24.7 88 1.5 E 6 9 3 5 1015.4 1015.4 0.0
22/08:00am 25.7 31.1 25.2 97 0.3 ENE 6 7 3 4 1015.2 1015.2 0.0
22/07:30am 24.3 29.0 24.0 98 0.2 E 6 7 3 4 1014.8 1014.8 0.0
22/07:00am 23.0 27.1 22.3 96 0.5 E 4 6 2 3 1014.7 1014.7 0.0
22/06:30am 23.3 27.6 22.6 96 0.5 E 4 4 2 2 1014.8 1014.8 0.0
22/06:00am 24.0 28.5 23.7 98 0.2 E 6 7 3 4 1014.7 1014.7 0.0
22/05:30am 24.0 28.8 23.5 97 0.3 E 4 6 2 3 1014.7 1014.7 0.0
22/05:00am 23.8 28.3 23.0 95 0.5 E 4 6 2 3 1014.6 1014.6 0.0
22/04:30am 24.2 28.5 23.3 95 0.6 E 6 7 3 4 1014.8 1014.8 0.0
22/04:00am 24.1 28.7 23.8 98 0.2 ESE 6 7 3 4 1014.8 1014.8 0.0
22/03:30am 23.7 28.4 23.4 98 0.2 ESE 4 4 2 2 1014.8 1014.8 0.0
22/03:00am 22.7 27.0 22.0 96 0.5 ESE 2 4 1 2 1014.5 1014.5 0.0
22/02:30am 22.7 27.0 21.9 95 0.5 ENE 2 2 1 1 1014.4 1014.4 0.0
22/02:00am 22.9 27.5 21.7 93 0.8 CALM 0 2 0 1 1014.5 1014.5 0.0
22/01:30am 23.4 28.3 22.4 94 0.7 CALM 0 2 0 1 1014.6 1014.6 0.0
22/01:00am 24.2 28.9 23.3 95 0.6 SSE 4 6 2 3 1014.9 1014.9 0.0
22/12:30am 23.6 28.4 22.2 92 0.9 CALM 0 4 0 2 1015.0 1015.0 0.0
22/12:00am 24.3 29.6 23.1 93 0.8 CALM 0 0 0 0 1014.9 1014.9 0.0
 
Date/Time
CST
Temp
°C
App
Temp
°C
Dew
Point
Rel
Hum
%
Delta-T
°C
Wind Press
QNH
hPa
Press
MSL
hPa
Rain
since 9 am
mm
Dir
 
Spd
km/h
Gust
km/h
Spd
kts
Gust
kts
21/11:30pm 24.3 29.4 22.7 91 1.1 CALM 0 0 0 0 1014.9 1014.9 0.0
21/11:00pm 24.6 29.8 22.8 90 1.2 CALM 0 0 0 0 1014.8 1014.8 0.0
21/10:30pm 25.2 30.4 22.9 87 1.6 CALM 0 0 0 0 1014.7 1014.7 0.0
21/10:00pm 25.9 31.2 23.0 84 2.0 CALM 0 2 0 1 1014.6 1014.6 0.0
21/09:30pm 26.4 31.2 23.5 84 2.0 SSW 4 6 2 3 1014.6 1014.6 0.0
21/09:00pm 25.9 31.0 23.4 86 1.7 SW 2 6 1 3 1014.5 1014.5 0.0
21/08:30pm 26.0 31.2 22.9 83 2.1 CALM 0 4 0 2 1014.2 1014.2 0.0
21/08:00pm 25.4 30.4 22.5 84 1.9 CALM 0 0 0 0 1013.8 1013.8 0.0
21/07:30pm 25.9 31.0 22.6 82 2.2 CALM 0 0 0 0 1013.4 1013.4 0.0
21/07:00pm 26.9 31.5 23.2 80 2.5 WNW 4 4 2 2 1013.3 1013.3 0.0
21/06:30pm 27.6 32.5 23.6 79 2.7 W 4 7 2 4 1013.2 1013.2 0.0
21/06:00pm 28.4 33.4 23.8 76 3.2 W 4 7 2 4 1013.0 1013.0 0.0
21/05:30pm 28.9 33.7 24.2 76 3.3 W 6 9 3 5 1012.6 1012.6 0.0
21/05:00pm 29.5 34.0 23.9 72 3.9 WNW 7 11 4 6 1012.6 1012.6 0.0
21/04:30pm 29.2 33.3 23.9 73 3.7 NNW 9 15 5 8 1012.5 1012.5 0.0
21/04:00pm 29.6 33.9 24.2 73 3.8 NNW 9 17 5 9 1012.3 1012.3 0.0
21/03:30pm 29.6 33.2 23.8 71 4.0 NW 11 17 6 9 1012.6 1012.6 0.0
21/03:00pm 29.6 33.6 23.8 71 4.0 WNW 9 15 5 8 1012.9 1012.9 0.0
21/02:30pm 29.7 32.2 23.2 68 4.5 N 15 22 8 12 1012.9 1012.9 0.0
21/02:00pm 30.1 33.2 22.8 65 5.0 NNW 11 19 6 10 1013.4 1013.4 0.0
21/01:30pm 30.3 32.5 21.9 60 5.7 N 13 20 7 11 1013.9 1013.9 0.0
21/01:00pm 31.1 35.2 23.2 63 5.4 NNW 7 13 4 7 1014.5 1014.5 0.0
21/12:30pm 31.0 34.6 22.3 60 5.9 N 7 13 4 7 1014.9 1014.9 0.0
21/12:00pm 31.1 34.5 21.6 57 6.4 NNE 6 11 3 6 1015.0 1015.0 0.0
21/11:30am 30.9 34.2 21.4 57 6.4 E 6 9 3 5 1015.4 1015.4 0.0
21/11:00am 30.6 33.6 20.8 56 6.5 ENE 6 13 3 7 1015.8 1015.8 0.0
21/10:30am 30.1 33.0 20.6 56 6.3 E 6 9 3 5 1015.9 1015.9 0.0
21/10:00am 29.1 31.8 20.3 59 5.8 E 6 9 3 5 1015.9 1015.9 0.0
21/09:30am 28.4 32.1 22.2 69 4.2 E 6 11 3 6 1016.1 1016.1 0.0
21/09:00am 27.4 32.0 24.1 82 2.3 E 7 11 4 6 1015.9 1015.9 0.0
21/08:30am 26.1 30.3 24.1 89 1.4 E 9 17 5 9 1016.1 1016.1 0.0
21/08:00am 25.1 30.4 24.9 99 0.1 E 6 11 3 6 1015.6 1015.6 0.0
21/07:30am 22.2 26.5 21.9 98 0.2 ENE 2 4 1 2 1015.0 1015.0 0.0
21/07:00am 21.9 26.4 21.6 98 0.2 CALM 0 0 0 0 1014.7 1014.7 0.0
21/06:30am 22.1 26.7 21.8 98 0.2 CALM 0 0 0 0 1014.5 1014.5 0.0
21/06:00am 22.1 26.2 21.6 97 0.3 ENE 2 2 1 1 1014.4 1014.4 0.0
21/05:30am 22.2 26.8 21.7 97 0.3 CALM 0 0 0 0 1014.3 1014.3 0.0
21/05:00am 22.8 27.7 22.3 97 0.3 CALM 0 0 0 0 1014.2 1014.2 0.0
21/04:30am 22.6 27.3 21.9 96 0.5 CALM 0 2 0 1 1014.2 1014.2 0.0
21/04:00am 22.8 27.6 22.1 96 0.5 CALM 0 2 0 1 1014.0 1014.0 0.0
21/03:30am 23.2 28.1 22.4 95 0.5 CALM 0 4 0 2 1014.0 1014.0 0.0
21/03:00am 23.9 29.2 23.0 95 0.6 CALM 0 0 0 0 1014.0 1014.0 0.0
21/02:30am 24.5 30.2 23.8 96 0.5 CALM 0 4 0 2 1014.2 1014.2 0.0
21/02:00am 24.7 29.9 24.2 97 0.3 S 4 6 2 3 1014.2 1014.2 0.0
21/01:30am 25.1 30.7 24.8 98 0.2 SSE 4 6 2 3 1014.6 1014.6 0.0
21/01:00am 24.6 29.5 23.6 94 0.7 SSE 4 6 2 3 1014.6 1014.6 0.0
21/12:30am 24.5 29.9 23.3 93 0.8 CALM 0 0 0 0 1014.6 1014.6 0.0
21/12:00am 25.4 31.4 24.2 93 0.8 CALM 0 0 0 0 1014.7 1014.7 0.0
 
Date/Time
CST
Temp
°C
App
Temp
°C
Dew
Point
Rel
Hum
%
Delta-T
°C
Wind Press
QNH
hPa
Press
MSL
hPa
Rain
since 9 am
mm
Dir
 
Spd
km/h
Gust
km/h
Spd
kts
Gust
kts
20/11:30pm 26.1 32.4 24.7 92 1.0 CALM 0 4 0 2 1015.0 1015.0 0.0
20/11:00pm 26.1 31.5 24.5 91 1.1 SW 4 6 2 3 1014.8 1014.8 0.0
20/10:30pm 26.4 32.1 24.4 89 1.4 SW 2 4 1 2 1014.8 1014.8 0.0
20/10:00pm 26.8 31.8 24.5 87 1.6 SW 6 7 3 4 1014.9 1014.9 0.0
20/09:30pm 26.6 31.9 24.3 87 1.6 SW 4 6 2 3 1014.8 1014.8 0.0
20/09:00pm 26.9 32.9 24.2 85 1.9 CALM 0 2 0 1 1014.5 1014.5 0.0
20/08:30pm 27.1 32.7 24.2 84 2.0 W 2 7 1 4 1014.2 1014.2 0.0
20/08:00pm 27.2 32.7 24.1 83 2.1 WSW 2 6 1 3 1013.8 1013.8 0.0
20/07:30pm 27.3 32.6 23.7 81 2.5 SW 2 6 1 3 1013.4 1013.4 0.0
20/07:00pm 27.4 32.0 23.8 81 2.5 W 6 11 3 6 1013.3 1013.3 0.0
20/06:30pm 27.5 32.4 23.7 80 2.6 W 4 7 2 4 1013.1 1013.1 0.0
20/06:00pm 28.3 32.8 23.7 76 3.2 WNW 6 11 3 6 1012.9 1012.9 0.0
20/05:30pm 28.8 32.6 23.5 73 3.6 WNW 9 13 5 7 1012.6 1012.6 0.0
20/05:00pm 29.4 33.9 23.6 71 4.0 WNW 6 11 3 6 1012.3 1012.3 0.0
20/04:30pm 29.8 34.0 23.5 69 4.3 WNW 7 11 4 6 1012.1 1012.1 0.0
20/04:00pm 29.9 33.6 23.3 67 4.5 WNW 9 17 5 9 1012.1 1012.1 0.0
20/03:30pm 30.1 33.6 22.8 65 5.0 NW 9 15 5 8 1012.2 1012.2 0.0
20/03:00pm 30.1 33.8 23.3 67 4.7 WNW 9 17 5 9 1012.4 1012.4 0.0
20/02:30pm 30.4 33.4 22.6 63 5.3 NNW 11 17 6 9 1012.5 1012.5 0.0
20/02:00pm - - - - - NNW 11 17 6 9 1012.9 1012.9 0.0
20/01:30pm - - - - - NNW 11 17 6 9 1013.2 1013.2 0.0
20/01:00pm 29.8 32.6 22.3 64 5.1 N 11 17 6 9 1013.9 1013.9 0.0
20/12:30pm 30.5 33.9 22.7 63 5.3 N 9 17 5 9 1014.4 1014.4 0.0
20/12:00pm 30.9 34.8 23.0 62 5.4 N 7 13 4 7 1014.6 1014.6 0.0
20/11:30am 30.7 34.6 22.6 62 5.5 N 6 11 3 6 1015.0 1015.0 0.0
20/11:00am 30.5 34.6 23.2 65 5.0 NE 7 13 4 7 1015.1 1015.1 0.0
20/10:30am 29.6 33.7 23.3 69 4.3 NE 7 13 4 7 1015.4 1015.4 0.0
20/10:00am 29.0 32.7 23.2 71 4.0 ENE 9 13 5 7 1015.6 1015.6 0.0
20/09:30am 28.3 32.1 23.4 75 3.4 E 9 15 5 8 1015.6 1015.6 0.0
20/09:00am 26.5 31.1 24.2 87 1.6 ENE 7 11 4 6 1015.5 1015.5 0.0
20/08:30am 25.7 30.6 24.3 92 1.0 E 6 7 3 4 1015.1 1015.1 0.0
20/08:00am 25.1 30.7 24.9 99 0.1 E 4 6 2 3 1014.8 1014.8 0.0
20/07:30am 24.0 28.6 23.8 99 0.1 ENE 6 7 3 4 1014.5 1014.5 0.0
20/07:00am 22.8 26.8 22.1 96 0.5 ENE 4 4 2 2 1014.2 1014.2 0.0
20/06:30am 23.3 27.8 23.0 98 0.2 ESE 4 4 2 2 1013.8 1013.8 0.0
20/06:00am 23.6 28.7 23.3 98 0.2 E 2 2 1 1 1013.7 1013.7 0.0
20/05:30am 23.4 28.0 23.1 98 0.2 SE 4 4 2 2 1013.7 1013.7 0.0
20/05:00am 23.1 27.9 22.8 98 0.2 ESE 2 4 1 2 1013.5 1013.5 0.0
20/04:30am 23.6 27.9 23.3 98 0.2 E 6 6 3 3 1013.4 1013.4 0.0
20/04:00am 22.9 27.2 22.6 98 0.2 E 4 6 2 3 1013.5 1013.5 0.0
20/03:30am - - - - - E 2 4 1 2 1013.4 1013.4 0.0
20/03:00am - - - - - CALM 0 4 0 2 1013.5 1013.5 0.0
20/02:30am - - - - - SE 2 4 1 2 1013.5 1013.5 0.0
20/02:00am - - - - - CALM 0 2 0 1 1013.5 1013.5 0.0
20/01:30am - - - - - SSE 4 6 2 3 1013.5 1013.5 0.0
20/01:00am - - - - - SSE 4 6 2 3 1013.5 1013.5 0.0
20/12:30am - - - - - SSE 4 6 2 3 1013.7 1013.7 0.0
20/12:00am 24.7 29.7 23.8 95 0.6 SSE 4 4 2 2 1013.7 1013.7 0.0
 
Date/Time
CST
Temp
°C
App
Temp
°C
Dew
Point
Rel
Hum
%
Delta-T
°C
Wind Press
QNH
hPa
Press
MSL
hPa
Rain
since 9 am
mm
Dir
 
Spd
km/h
Gust
km/h
Spd
kts
Gust
kts
19/11:30pm 24.9 30.0 24.0 95 0.6 S 4 6 2 3 1013.8 1013.8 0.0
19/11:00pm 24.6 29.5 23.6 94 0.7 S 4 6 2 3 1014.0 1014.0 0.0
19/10:30pm 23.8 28.6 22.2 91 1.1 CALM 0 0 0 0 1013.7 1013.7 0.0

Other Formats:

Comma delimited format used in spreadsheet applications
http://www.bom.gov.au/fwo/IDD60801/IDD60801.94116.axf

JavaScript Object Notation format (JSON) in row-major order
http://www.bom.gov.au/fwo/IDD60801/IDD60801.94116.json